createdAt,value
2018-01-23T00:00:36.925Z,7.88
2018-01-23T00:01:36.919Z,7.86
2018-01-23T00:02:36.913Z,8.00
2018-01-23T00:03:36.907Z,8.02
2018-01-23T00:04:36.898Z,8.00
2018-01-23T00:05:36.892Z,7.89
2018-01-23T00:06:36.880Z,8.00
2018-01-23T00:07:36.871Z,7.91
2018-01-23T00:08:36.864Z,7.89
2018-01-23T00:09:36.856Z,7.91
2018-01-23T00:10:36.853Z,7.85
2018-01-23T00:11:36.845Z,7.89
2018-01-23T00:12:36.837Z,7.91
2018-01-23T00:13:36.830Z,7.92
2018-01-23T00:14:36.821Z,7.88
2018-01-23T00:15:36.814Z,7.85
2018-01-23T00:16:36.806Z,7.85
2018-01-23T00:17:36.799Z,7.86
2018-01-23T00:18:36.787Z,7.86
2018-01-23T00:19:36.779Z,7.86
2018-01-23T00:20:36.771Z,7.85
2018-01-23T00:21:36.764Z,7.85
2018-01-23T00:22:36.755Z,7.88
2018-01-23T00:23:36.753Z,7.71
2018-01-23T00:24:36.741Z,7.86
2018-01-23T00:25:36.733Z,7.88
2018-01-23T00:26:36.729Z,7.84
2018-01-23T00:27:36.724Z,7.84
2018-01-23T00:28:36.714Z,7.82
2018-01-23T00:29:36.708Z,7.81
2018-01-23T00:30:36.700Z,7.76
2018-01-23T00:31:36.691Z,7.74
2018-01-23T00:32:36.684Z,7.71
2018-01-23T00:34:36.667Z,7.69
2018-01-23T00:35:36.656Z,7.69
2018-01-23T00:36:36.648Z,7.62
2018-01-23T00:37:36.640Z,7.66
2018-01-23T00:38:36.632Z,7.58
2018-01-23T00:39:36.625Z,7.57
2018-01-23T00:40:36.618Z,7.58
2018-01-23T00:41:36.610Z,7.60
2018-01-23T00:42:36.601Z,7.66
2018-01-23T00:43:36.597Z,7.54
2018-01-23T00:44:36.591Z,7.51
2018-01-23T00:45:36.582Z,7.47
2018-01-23T00:46:36.575Z,7.48
2018-01-23T00:47:36.567Z,7.44
2018-01-23T00:48:36.558Z,7.32
2018-01-23T00:49:36.551Z,7.32
2018-01-23T00:50:36.542Z,7.27
2018-01-23T00:51:36.530Z,7.30
2018-01-23T00:52:36.521Z,7.27
2018-01-23T00:53:36.514Z,7.29
2018-01-23T00:54:36.505Z,7.29
2018-01-23T00:55:36.497Z,7.30
2018-01-23T00:56:36.489Z,7.24
2018-01-23T00:57:36.481Z,7.27
2018-01-23T00:58:36.472Z,7.37
2018-01-23T00:59:36.469Z,7.39
2018-01-23T01:00:36.462Z,7.42
2018-01-23T01:01:36.453Z,7.39
2018-01-23T01:02:36.443Z,7.45
2018-01-23T01:03:36.436Z,7.42
2018-01-23T01:04:36.428Z,7.41
2018-01-23T01:05:36.421Z,7.47
2018-01-23T01:06:36.412Z,7.47
2018-01-23T01:07:36.400Z,7.48
2018-01-23T01:08:36.393Z,7.47
2018-01-23T01:09:36.384Z,7.48
2018-01-23T01:10:36.375Z,7.51
2018-01-23T01:11:36.385Z,7.44
2018-01-23T01:12:36.365Z,7.45
2018-01-23T01:13:36.356Z,7.51
2018-01-23T01:14:36.348Z,7.47
2018-01-23T01:15:36.339Z,7.44
2018-01-23T01:16:36.330Z,7.51
2018-01-23T01:17:36.320Z,7.50
2018-01-23T01:18:36.310Z,7.52
2018-01-23T01:19:36.304Z,7.55
2018-01-23T01:20:36.296Z,7.60
2018-01-23T01:21:36.288Z,7.54
2018-01-23T01:22:36.279Z,7.69
2018-01-23T01:23:36.275Z,7.57
2018-01-23T01:24:36.268Z,7.60
2018-01-23T01:25:36.260Z,7.54
2018-01-23T01:26:36.251Z,7.60
2018-01-23T01:27:36.242Z,7.57
2018-01-23T01:28:36.235Z,7.62
2018-01-23T01:29:36.230Z,7.60
2018-01-23T01:30:36.219Z,7.62
2018-01-23T01:31:36.207Z,7.66
2018-01-23T01:32:36.199Z,7.62
2018-01-23T01:33:36.192Z,7.63
2018-01-23T01:34:36.184Z,7.71
2018-01-23T01:35:36.174Z,7.69
2018-01-23T01:36:36.167Z,7.76
2018-01-23T01:37:36.159Z,7.73
2018-01-23T01:38:36.152Z,7.71
2018-01-23T01:39:36.147Z,7.77
2018-01-23T01:40:36.140Z,7.76
2018-01-23T01:41:36.133Z,7.70
2018-01-23T01:42:36.123Z,7.82
2018-01-23T01:43:36.117Z,7.76
2018-01-23T01:44:36.108Z,7.74
2018-01-23T01:45:36.100Z,7.82
2018-01-23T01:46:36.092Z,7.71
2018-01-23T01:47:36.080Z,7.81
2018-01-23T01:48:36.072Z,7.76
2018-01-23T01:49:36.065Z,7.82
2018-01-23T01:50:36.057Z,7.77
2018-01-23T01:51:36.048Z,7.77
2018-01-23T01:52:36.041Z,7.77
2018-01-23T01:53:36.034Z,7.73
2018-01-23T01:54:36.025Z,7.82
2018-01-23T01:55:36.022Z,7.76
2018-01-23T01:56:36.014Z,7.73
2018-01-23T01:57:36.007Z,7.81
2018-01-23T01:58:35.998Z,7.77
2018-01-23T01:59:35.990Z,7.71
2018-01-23T02:00:35.982Z,7.79
2018-01-23T02:01:35.975Z,7.86
2018-01-23T02:02:35.966Z,7.84
2018-01-23T02:03:35.954Z,7.85
2018-01-23T02:04:35.947Z,7.77
2018-01-23T02:05:35.942Z,7.71
2018-01-23T02:06:35.931Z,7.74
2018-01-23T02:07:35.922Z,7.73
2018-01-23T02:08:35.915Z,7.79
2018-01-23T02:09:35.908Z,7.82
2018-01-23T02:10:35.899Z,7.77
2018-01-23T02:11:35.896Z,7.77
2018-01-23T02:12:35.888Z,7.74
2018-01-23T02:13:35.879Z,7.71
2018-01-23T02:14:35.873Z,7.70
2018-01-23T02:15:35.861Z,7.74
2018-01-23T02:16:35.852Z,7.71
2018-01-23T02:17:35.844Z,7.67
2018-01-23T02:18:35.836Z,7.71
2018-01-23T02:19:35.833Z,7.76
2018-01-23T02:20:35.826Z,7.82
2018-01-23T02:21:35.818Z,7.74
2018-01-23T02:22:35.809Z,7.71
2018-01-23T02:23:35.801Z,7.76
2018-01-23T02:24:35.794Z,7.77
2018-01-23T02:25:35.786Z,7.88
2018-01-23T02:26:35.777Z,7.82
2018-01-23T02:27:35.765Z,7.82
2018-01-23T02:28:35.758Z,7.73
2018-01-23T02:29:35.750Z,7.84
2018-01-23T02:30:35.742Z,7.88
2018-01-23T02:31:35.734Z,7.82
2018-01-23T02:32:35.729Z,7.91
2018-01-23T02:33:35.718Z,7.86
2018-01-23T02:34:35.713Z,7.88
2018-01-23T02:35:35.708Z,7.88
2018-01-23T02:36:35.701Z,7.91
2018-01-23T02:37:35.691Z,7.84
2018-01-23T02:38:35.683Z,7.88
2018-01-23T02:39:35.677Z,7.92
2018-01-23T02:40:35.668Z,7.89
2018-01-23T02:41:35.661Z,7.76
2018-01-23T02:42:35.652Z,7.81
2018-01-23T02:43:35.641Z,7.77
2018-01-23T02:44:35.633Z,7.70
2018-01-23T02:45:35.625Z,7.88
2018-01-23T02:46:35.616Z,7.76
2018-01-23T02:47:35.609Z,7.73
2018-01-23T02:48:35.601Z,7.79
2018-01-23T02:49:35.594Z,7.81
2018-01-23T02:50:35.585Z,7.73
2018-01-23T02:51:35.582Z,7.74
2018-01-23T02:52:35.574Z,7.77
2018-01-23T02:53:35.567Z,7.69
2018-01-23T02:54:35.557Z,7.71
2018-01-23T02:55:35.550Z,7.63
2018-01-23T02:56:35.543Z,7.63
2018-01-23T02:57:35.535Z,7.67
2018-01-23T02:58:35.526Z,7.70
2018-01-23T02:59:35.514Z,7.67
2018-01-23T03:00:35.507Z,7.73
2018-01-23T03:01:35.499Z,7.69
2018-01-23T03:02:35.490Z,7.69
2018-01-23T03:03:35.483Z,7.66
2018-01-23T03:04:35.475Z,7.71
2018-01-23T03:05:35.468Z,7.67
2018-01-23T03:06:35.459Z,7.71
2018-01-23T03:07:35.456Z,7.69
2018-01-23T03:08:35.449Z,7.63
2018-01-23T03:09:35.441Z,7.71
2018-01-23T03:10:35.432Z,7.67
2018-01-23T03:11:35.424Z,7.66
2018-01-23T03:12:35.416Z,7.63
2018-01-23T03:13:35.409Z,7.60
2018-01-23T03:14:35.401Z,7.67
2018-01-23T03:15:35.389Z,7.63
2018-01-23T03:16:35.383Z,7.63
2018-01-23T03:17:35.373Z,7.63
2018-01-23T03:18:35.365Z,7.62
2018-01-23T03:19:35.361Z,7.58
2018-01-23T03:20:35.353Z,7.58
2018-01-23T03:21:35.346Z,7.62
2018-01-23T03:22:35.337Z,7.62
2018-01-23T03:23:35.325Z,7.57
2018-01-23T03:24:35.318Z,7.51
2018-01-23T03:25:35.309Z,7.50
2018-01-23T03:26:35.301Z,7.52
2018-01-23T03:27:35.293Z,7.57
2018-01-23T03:28:35.286Z,7.54
2018-01-23T03:29:35.278Z,7.51
2018-01-23T03:30:35.271Z,7.54
2018-01-23T03:31:35.267Z,7.44
2018-01-23T03:32:35.258Z,7.50
2018-01-23T03:33:35.250Z,7.51
2018-01-23T03:34:35.241Z,7.48
2018-01-23T03:35:35.233Z,7.52
2018-01-23T03:36:35.227Z,7.57
2018-01-23T03:37:35.218Z,7.51
2018-01-23T03:38:35.209Z,7.66
2018-01-23T03:39:35.198Z,7.69
2018-01-23T03:40:35.195Z,7.58
2018-01-23T03:41:35.183Z,7.62
2018-01-23T03:42:35.173Z,7.58
2018-01-23T03:43:35.167Z,7.66
2018-01-23T03:44:35.158Z,7.58
2018-01-23T03:45:35.150Z,7.57
2018-01-23T03:46:35.142Z,7.63
2018-01-23T03:47:35.140Z,7.55
2018-01-23T03:48:35.131Z,7.52
2018-01-23T03:49:35.125Z,7.54
2018-01-23T03:50:35.118Z,7.51
2018-01-23T03:51:35.108Z,7.52
2018-01-23T03:52:35.100Z,7.52
2018-01-23T03:53:35.092Z,7.50
2018-01-23T03:54:35.083Z,7.52
2018-01-23T03:55:35.078Z,7.50
2018-01-23T03:56:35.064Z,7.48
2018-01-23T03:57:35.057Z,7.51
2018-01-23T03:58:35.048Z,7.51
2018-01-23T03:59:35.039Z,7.41
2018-01-23T04:00:35.032Z,7.45
2018-01-23T04:01:35.024Z,7.48
2018-01-23T04:02:35.015Z,7.48
2018-01-23T04:03:35.012Z,7.48
2018-01-23T04:04:35.004Z,7.41
2018-01-23T04:05:34.996Z,7.44
2018-01-23T04:06:34.987Z,7.47
2018-01-23T04:07:34.979Z,7.41
2018-01-23T04:08:34.972Z,7.45
2018-01-23T04:09:34.965Z,7.48
2018-01-23T04:10:34.956Z,7.54
2018-01-23T04:11:34.944Z,7.47
2018-01-23T04:12:34.936Z,7.41
2018-01-23T04:13:34.931Z,7.51
2018-01-23T04:14:34.922Z,7.48
2018-01-23T04:15:34.912Z,7.50
2018-01-23T04:16:34.906Z,7.48
2018-01-23T04:17:34.897Z,7.54
2018-01-23T04:18:34.890Z,7.51
2018-01-23T04:19:34.884Z,7.50
2018-01-23T04:20:34.877Z,7.48
2018-01-23T04:21:34.875Z,7.41
2018-01-23T04:22:34.862Z,7.51
2018-01-23T04:23:34.849Z,7.57
2018-01-23T04:24:34.842Z,7.50
2018-01-23T04:25:34.846Z,7.50
2018-01-23T04:26:34.826Z,7.48
2018-01-23T04:27:34.822Z,7.47
2018-01-23T04:28:34.814Z,7.45
2018-01-23T04:29:34.807Z,7.55
2018-01-23T04:30:34.799Z,7.58
2018-01-23T04:31:34.790Z,7.66
2018-01-23T04:32:34.782Z,7.52
2018-01-23T04:33:34.775Z,7.57
2018-01-23T04:34:34.768Z,7.66
2018-01-23T04:35:34.755Z,7.55
2018-01-23T04:36:34.746Z,7.52
2018-01-23T04:37:34.739Z,7.48
2018-01-23T04:38:34.730Z,7.51
2018-01-23T04:39:34.725Z,7.50
2018-01-23T04:40:34.715Z,7.50
2018-01-23T04:41:34.708Z,7.48
2018-01-23T04:42:34.699Z,7.50
2018-01-23T04:43:34.696Z,7.54
2018-01-23T04:44:34.691Z,7.47
2018-01-23T04:45:34.685Z,7.48
2018-01-23T04:46:34.672Z,7.51
2018-01-23T04:47:34.667Z,7.47
2018-01-23T04:48:34.656Z,7.48
2018-01-23T04:49:34.649Z,7.51
2018-01-23T04:50:34.640Z,7.50
2018-01-23T04:51:34.628Z,7.48
2018-01-23T04:52:34.620Z,7.47
2018-01-23T04:53:34.613Z,7.48
2018-01-23T04:54:34.605Z,7.47
2018-01-23T04:55:34.597Z,7.44
2018-01-23T04:56:34.589Z,7.47
2018-01-23T04:57:34.582Z,7.51
2018-01-23T04:58:34.574Z,7.51
2018-01-23T04:59:34.570Z,7.42
2018-01-23T05:00:34.562Z,7.51
2018-01-23T05:01:34.554Z,7.52
2018-01-23T05:02:34.546Z,7.50
2018-01-23T05:03:34.538Z,7.55
2018-01-23T05:04:34.532Z,7.54
2018-01-23T05:05:34.522Z,7.51
2018-01-23T05:06:34.514Z,7.51
2018-01-23T05:07:34.502Z,7.51
2018-01-23T05:08:34.494Z,7.44
2018-01-23T05:09:34.493Z,7.51
2018-01-23T05:10:34.478Z,7.50
2018-01-23T05:11:34.470Z,7.47
2018-01-23T05:12:34.462Z,7.51
2018-01-23T05:13:34.454Z,7.55
2018-01-23T05:14:34.475Z,7.54
2018-01-23T05:15:34.446Z,7.52
2018-01-23T05:16:34.441Z,7.51
2018-01-23T05:17:34.427Z,7.51
2018-01-23T05:18:34.419Z,7.55
2018-01-23T05:19:34.412Z,7.54
2018-01-23T05:20:34.405Z,7.55
2018-01-23T05:21:34.395Z,7.66
2018-01-23T05:22:34.387Z,7.67
2018-01-23T05:23:34.375Z,7.62
2018-01-23T05:24:34.369Z,7.57
2018-01-23T05:25:34.359Z,7.54
2018-01-23T05:26:34.350Z,7.54
2018-01-23T05:27:34.348Z,7.66
2018-01-23T05:28:34.341Z,7.58
2018-01-23T05:29:34.333Z,7.63
2018-01-23T05:30:34.323Z,7.66
2018-01-23T05:31:34.311Z,7.67
2018-01-23T05:32:34.304Z,7.69
2018-01-23T05:33:34.296Z,7.67
2018-01-23T05:34:34.286Z,7.62
2018-01-23T05:35:34.279Z,7.63
2018-01-23T05:36:34.273Z,7.63
2018-01-23T05:37:34.264Z,7.69
2018-01-23T05:38:34.255Z,7.60
2018-01-23T05:39:34.251Z,7.63
2018-01-23T05:40:34.245Z,7.62
2018-01-23T05:41:34.236Z,7.63
2018-01-23T05:42:34.228Z,7.66
2018-01-23T05:43:34.221Z,7.69
2018-01-23T05:44:34.212Z,7.66
2018-01-23T05:45:34.205Z,7.62
2018-01-23T05:46:34.196Z,7.63
2018-01-23T05:47:34.184Z,7.62
2018-01-23T05:48:34.176Z,7.55
2018-01-23T05:49:34.169Z,7.63
2018-01-23T05:50:34.160Z,7.55
2018-01-23T05:51:34.153Z,7.63
2018-01-23T05:52:34.144Z,7.63
2018-01-23T05:53:34.138Z,7.55
2018-01-23T05:54:34.128Z,7.57
2018-01-23T05:55:34.124Z,7.62
2018-01-23T05:56:34.117Z,7.62
2018-01-23T05:57:34.109Z,7.63
2018-01-23T05:58:34.101Z,7.66
2018-01-23T05:59:34.093Z,7.60
2018-01-23T06:00:34.085Z,7.73
2018-01-23T06:01:34.080Z,7.70
2018-01-23T06:02:34.069Z,7.73
2018-01-23T06:03:34.057Z,7.69
2018-01-23T06:04:34.049Z,7.71
2018-01-23T06:05:34.043Z,7.71
2018-01-23T06:06:34.033Z,7.69
2018-01-23T06:07:34.026Z,7.82
2018-01-23T06:08:34.023Z,7.79
2018-01-23T06:09:34.011Z,7.74
2018-01-23T06:10:34.003Z,7.77
2018-01-23T06:11:33.998Z,7.67
2018-01-23T06:12:33.991Z,7.70
2018-01-23T06:13:33.983Z,7.81
2018-01-23T06:14:33.974Z,7.85
2018-01-23T06:15:33.966Z,7.81
2018-01-23T06:16:33.958Z,7.84
2018-01-23T06:17:33.951Z,7.82
2018-01-23T06:18:33.943Z,7.84
2018-01-23T06:19:33.932Z,7.86
2018-01-23T06:20:33.922Z,7.81
2018-01-23T06:21:33.914Z,7.84
2018-01-23T06:22:33.906Z,7.82
2018-01-23T06:23:33.898Z,7.82
2018-01-23T06:24:33.891Z,7.84
2018-01-23T06:25:33.885Z,7.77
2018-01-23T06:26:33.887Z,7.86
2018-01-23T06:27:33.874Z,7.92
2018-01-23T06:28:33.864Z,7.89
2018-01-23T06:29:33.855Z,7.88
2018-01-23T06:30:33.852Z,7.81
2018-01-23T06:31:33.835Z,7.73
2018-01-23T06:32:33.827Z,7.77
2018-01-23T06:33:33.819Z,7.76
2018-01-23T06:34:33.811Z,7.82
2018-01-23T06:35:33.806Z,7.85
2018-01-23T06:36:33.799Z,7.85
2018-01-23T06:37:33.792Z,7.74
2018-01-23T06:38:33.782Z,7.82
2018-01-23T06:39:33.775Z,7.86
2018-01-23T06:40:33.771Z,7.86
2018-01-23T06:41:33.760Z,7.88
2018-01-23T06:42:33.752Z,7.84
2018-01-23T06:43:33.740Z,7.88
2018-01-23T06:44:33.731Z,7.86
2018-01-23T06:45:33.723Z,7.82
2018-01-23T06:46:33.718Z,7.84
2018-01-23T06:47:33.707Z,7.84
2018-01-23T06:48:33.700Z,7.88
2018-01-23T06:49:33.692Z,7.88
2018-01-23T06:50:33.683Z,7.85
2018-01-23T06:51:33.680Z,7.89
2018-01-23T06:52:33.672Z,7.99
2018-01-23T06:53:33.666Z,7.91
2018-01-23T06:54:33.657Z,7.89
2018-01-23T06:55:33.649Z,7.88
2018-01-23T06:56:33.640Z,7.88
2018-01-23T06:57:33.632Z,7.91
2018-01-23T06:58:33.624Z,8.02
2018-01-23T06:59:33.612Z,7.99
2018-01-23T07:00:33.605Z,7.91
2018-01-23T07:01:33.601Z,7.86
2018-01-23T07:02:33.588Z,8.03
2018-01-23T07:03:33.580Z,7.99
2018-01-23T07:04:33.573Z,7.95
2018-01-23T07:05:33.565Z,7.94
2018-01-23T07:06:33.556Z,8.04
2018-01-23T07:07:33.552Z,8.00
2018-01-23T07:08:33.545Z,8.02
2018-01-23T07:09:33.537Z,8.03
2018-01-23T07:10:33.528Z,8.00
2018-01-23T07:11:33.521Z,8.09
2018-01-23T07:12:33.513Z,8.06
2018-01-23T07:13:33.505Z,8.07
2018-01-23T07:14:33.497Z,8.07
2018-01-23T07:15:33.484Z,8.12
2018-01-23T07:16:33.477Z,8.14
2018-01-23T07:17:33.469Z,8.12
2018-01-23T07:18:33.459Z,8.10
2018-01-23T07:19:33.452Z,8.12
2018-01-23T07:20:33.444Z,8.10
2018-01-23T07:21:33.437Z,8.17
2018-01-23T07:22:33.427Z,8.10
2018-01-23T07:23:33.424Z,8.22
2018-01-23T07:24:33.416Z,8.09
2018-01-23T07:25:33.409Z,8.21
2018-01-23T07:26:33.399Z,8.24
2018-01-23T07:27:33.392Z,8.22
2018-01-23T07:28:33.384Z,8.22
2018-01-23T07:29:33.376Z,8.27
2018-01-23T07:30:33.367Z,8.24
2018-01-23T07:31:33.355Z,8.21
2018-01-23T07:32:33.347Z,8.21
2018-01-23T07:33:33.340Z,8.27
2018-01-23T07:34:33.331Z,8.10
2018-01-23T07:35:33.323Z,8.20
2018-01-23T07:36:33.315Z,8.10
2018-01-23T07:37:33.308Z,8.13
2018-01-23T07:38:33.298Z,8.21
2018-01-23T07:39:33.295Z,8.12
2018-01-23T07:40:33.287Z,8.12
2018-01-23T07:41:33.284Z,8.13
2018-01-23T07:42:33.272Z,8.07
2018-01-23T07:43:33.263Z,8.21
2018-01-23T07:44:33.256Z,8.17
2018-01-23T07:45:33.247Z,8.14
2018-01-23T07:46:33.239Z,8.21
2018-01-23T07:47:33.227Z,8.14
2018-01-23T07:48:33.219Z,8.18
2018-01-23T07:49:33.212Z,8.20
2018-01-23T07:50:33.203Z,8.22
2018-01-23T07:51:33.196Z,8.13
2018-01-23T07:52:33.187Z,8.20
2018-01-23T07:53:33.180Z,8.22
2018-01-23T07:54:33.174Z,8.28
2018-01-23T07:55:33.168Z,8.28
2018-01-23T07:56:33.160Z,8.32
2018-01-23T07:57:33.151Z,8.25
2018-01-23T07:58:33.148Z,8.27
2018-01-23T07:59:33.135Z,8.34
2018-01-23T08:00:33.128Z,8.31
2018-01-23T08:01:33.121Z,8.28
2018-01-23T08:02:33.113Z,8.36
2018-01-23T08:03:33.099Z,8.32
2018-01-23T08:04:33.092Z,8.32
2018-01-23T08:05:33.084Z,8.40
2018-01-23T08:06:33.076Z,8.37
2018-01-23T08:07:33.068Z,8.40
2018-01-23T08:08:33.103Z,8.36
2018-01-23T08:09:33.053Z,8.43
2018-01-23T08:10:33.044Z,8.50
2018-01-23T08:11:33.042Z,8.37
2018-01-23T08:12:33.034Z,8.50
2018-01-23T08:13:33.033Z,8.52
2018-01-23T08:14:33.019Z,8.52
2018-01-23T08:15:33.014Z,8.52
2018-01-23T08:16:33.003Z,8.54
2018-01-23T08:17:32.995Z,8.55
2018-01-23T08:18:32.987Z,8.49
2018-01-23T08:19:32.980Z,8.57
2018-01-23T08:20:32.970Z,8.55
2018-01-23T08:21:32.960Z,8.55
2018-01-23T08:22:32.951Z,8.60
2018-01-23T08:23:32.944Z,8.54
2018-01-23T08:24:32.939Z,8.55
2018-01-23T08:25:32.930Z,8.55
2018-01-23T08:26:32.921Z,8.58
2018-01-23T08:27:32.917Z,8.57
2018-01-23T08:28:32.910Z,8.57
2018-01-23T08:29:32.903Z,8.57
2018-01-23T08:30:32.894Z,8.64
2018-01-23T08:31:32.887Z,8.61
2018-01-23T08:32:32.880Z,8.65
2018-01-23T08:33:32.873Z,8.65
2018-01-23T08:34:32.863Z,8.55
2018-01-23T08:35:32.852Z,8.61
2018-01-23T08:36:32.844Z,8.55
2018-01-23T08:37:32.837Z,8.64
2018-01-23T08:38:32.836Z,8.65
2018-01-23T08:39:32.827Z,8.63
2018-01-23T08:40:32.818Z,8.68
2018-01-23T08:41:32.811Z,8.71
2018-01-23T08:42:32.802Z,8.71
2018-01-23T08:43:32.792Z,8.79
2018-01-23T08:44:32.784Z,8.83
2018-01-23T08:45:32.777Z,8.85
2018-01-23T08:46:32.769Z,8.85
2018-01-23T08:47:32.761Z,8.83
2018-01-23T08:48:32.754Z,8.85
2018-01-23T08:49:32.746Z,8.85
2018-01-23T08:50:32.738Z,8.86
2018-01-23T08:51:32.736Z,8.83
2018-01-23T08:52:32.727Z,8.89
2018-01-23T08:53:32.720Z,8.80
2018-01-23T08:54:32.713Z,8.86
2018-01-23T08:55:32.706Z,8.85
2018-01-23T08:56:32.697Z,8.85
2018-01-23T08:57:32.690Z,8.73
2018-01-23T08:58:32.682Z,8.79
2018-01-23T08:59:32.670Z,8.75
2018-01-23T09:00:32.663Z,8.80
2018-01-23T09:01:32.658Z,8.79
2018-01-23T09:02:32.647Z,8.82
2018-01-23T09:03:32.641Z,8.80
2018-01-23T09:04:32.633Z,8.83
2018-01-23T09:05:32.626Z,8.76
2018-01-23T09:06:32.617Z,8.82
2018-01-23T09:07:32.615Z,8.85
2018-01-23T09:08:32.608Z,8.86
2018-01-23T09:09:32.600Z,8.85
2018-01-23T09:10:32.591Z,8.88
2018-01-23T09:11:32.586Z,8.89
2018-01-23T09:12:32.576Z,8.88
2018-01-23T09:13:32.570Z,8.88
2018-01-23T09:14:32.561Z,8.88
2018-01-23T09:15:32.550Z,8.86
2018-01-23T09:16:32.543Z,8.86
2018-01-23T09:17:32.537Z,8.91
2018-01-23T09:18:32.527Z,8.93
2018-01-23T09:19:32.571Z,8.88
2018-01-23T09:20:32.513Z,8.93
2018-01-23T09:21:32.507Z,8.88
2018-01-23T09:22:32.497Z,8.88
2018-01-23T09:23:32.496Z,8.86
2018-01-23T09:24:32.487Z,8.96
2018-01-23T09:25:32.481Z,8.85
2018-01-23T09:26:32.472Z,8.83
2018-01-23T09:27:32.465Z,8.88
2018-01-23T09:28:32.458Z,8.85
2018-01-23T09:29:32.450Z,8.79
2018-01-23T09:30:32.442Z,8.88
2018-01-23T09:31:32.430Z,8.88
2018-01-23T09:32:32.423Z,8.91
2018-01-23T09:33:32.416Z,8.91
2018-01-23T09:34:32.450Z,8.89
2018-01-23T09:35:32.401Z,8.88
2018-01-23T09:36:32.394Z,8.93
2018-01-23T09:37:32.387Z,8.88
2018-01-23T09:38:32.379Z,8.88
2018-01-23T09:39:32.375Z,8.86
2018-01-23T09:40:32.368Z,9.01
2018-01-23T09:41:32.361Z,8.98
2018-01-23T09:42:32.357Z,8.96
2018-01-23T09:43:32.342Z,8.96
2018-01-23T09:44:32.335Z,9.03
2018-01-23T09:45:32.328Z,8.96
2018-01-23T09:46:32.343Z,8.94
2018-01-23T09:47:32.317Z,9.03
2018-01-23T09:48:32.311Z,9.03
2018-01-23T09:49:32.302Z,8.88
2018-01-23T09:50:32.294Z,8.89
2018-01-23T09:51:32.287Z,8.82
2018-01-23T09:52:32.280Z,8.94
2018-01-23T09:53:32.273Z,8.88
2018-01-23T09:54:32.266Z,8.85
2018-01-23T09:55:32.254Z,8.91
2018-01-23T09:56:32.248Z,8.83
2018-01-23T09:57:32.240Z,8.83
2018-01-23T09:58:32.232Z,8.86
2018-01-23T09:59:32.230Z,8.83
2018-01-23T10:00:32.217Z,8.86
2018-01-23T10:01:32.211Z,8.78
2018-01-23T10:02:32.203Z,8.91
2018-01-23T10:03:32.199Z,8.94
2018-01-23T10:04:32.192Z,8.89
2018-01-23T10:05:32.186Z,8.96
2018-01-23T10:06:32.176Z,8.98
2018-01-23T10:07:32.173Z,9.01
2018-01-23T10:08:32.164Z,8.86
2018-01-23T10:09:32.155Z,8.80
2018-01-23T10:10:32.148Z,8.91
2018-01-23T10:11:32.136Z,8.94
2018-01-23T10:12:32.130Z,8.89
2018-01-23T10:13:32.122Z,9.08
2018-01-23T10:14:32.116Z,9.03
2018-01-23T10:15:32.107Z,9.01
2018-01-23T10:16:32.100Z,9.03
2018-01-23T10:17:32.093Z,9.00
2018-01-23T10:18:32.085Z,9.01
2018-01-23T10:19:32.082Z,9.00
2018-01-23T10:20:32.075Z,9.10
2018-01-23T10:21:32.068Z,9.06
2018-01-23T10:22:32.062Z,9.27
2018-01-23T10:23:32.054Z,9.41
2018-01-23T10:24:32.048Z,9.48
2018-01-23T10:25:32.040Z,9.49
2018-01-23T10:26:32.032Z,9.48
2018-01-23T10:27:32.024Z,9.68
2018-01-23T10:28:32.015Z,9.95
2018-01-23T10:29:32.008Z,9.68
2018-01-23T10:30:32.001Z,9.59
2018-01-23T10:31:31.994Z,9.63
2018-01-23T10:32:31.988Z,9.80
2018-01-23T10:33:31.982Z,9.78
2018-01-23T10:34:31.975Z,9.91
2018-01-23T10:35:31.974Z,9.98
2018-01-23T10:36:31.989Z,10.24
2018-01-23T10:37:31.961Z,10.20
2018-01-23T10:38:31.954Z,10.16
2018-01-23T10:39:31.952Z,10.13
2018-01-23T10:40:31.943Z,10.10
2018-01-23T10:41:31.938Z,10.18
2018-01-23T10:42:31.930Z,10.90
2018-01-23T10:43:31.921Z,10.83
2018-01-23T10:44:31.916Z,10.90
2018-01-23T10:45:31.910Z,10.83
2018-01-23T10:46:31.906Z,10.93
2018-01-23T10:47:31.903Z,10.72
2018-01-23T10:48:31.898Z,10.87
2018-01-23T10:49:31.899Z,10.76
2018-01-23T10:50:31.937Z,10.68
2018-01-23T10:51:31.880Z,10.69
2018-01-23T10:52:31.874Z,10.62
2018-01-23T10:53:31.871Z,10.47
2018-01-23T10:54:31.881Z,10.34
2018-01-23T10:55:31.860Z,10.35
2018-01-23T10:56:31.856Z,10.36
2018-01-23T10:57:31.851Z,10.28
2018-01-23T10:58:31.845Z,10.35
2018-01-23T10:59:31.845Z,10.43
2018-01-23T11:00:31.841Z,10.49
2018-01-23T11:01:31.854Z,10.46
2018-01-23T11:02:31.831Z,10.54
2018-01-23T11:03:31.826Z,10.73
2018-01-23T11:04:31.821Z,10.69
2018-01-23T11:05:31.817Z,10.65
2018-01-23T11:06:31.810Z,10.68
2018-01-23T11:07:31.802Z,10.60
2018-01-23T11:08:31.798Z,10.63
2018-01-23T11:09:31.799Z,10.43
2018-01-23T11:10:31.788Z,10.32
2018-01-23T11:11:31.783Z,10.39
2018-01-23T11:12:31.777Z,10.28
2018-01-23T11:13:31.774Z,10.20
2018-01-23T11:14:31.767Z,10.18
2018-01-23T11:15:31.767Z,10.07
2018-01-23T11:16:31.764Z,9.98
2018-01-23T11:17:31.758Z,9.85
2018-01-23T11:18:31.751Z,9.95
2018-01-23T11:19:31.746Z,9.95
2018-01-23T11:20:31.742Z,9.99
2018-01-23T11:21:31.736Z,10.07
2018-01-23T11:22:31.731Z,10.10
2018-01-23T11:23:31.721Z,10.11
2018-01-23T11:24:31.715Z,10.13
2018-01-23T11:25:31.769Z,10.20
2018-01-23T11:26:31.707Z,10.20
2018-01-23T11:27:31.698Z,10.22
2018-01-23T11:28:31.694Z,10.22
2018-01-23T11:29:31.688Z,10.18
2018-01-23T11:30:31.696Z,10.36
2018-01-23T11:31:31.682Z,10.39
2018-01-23T11:32:31.676Z,10.38
2018-01-23T11:33:31.671Z,10.51
2018-01-23T11:34:31.664Z,10.34
2018-01-23T11:35:31.659Z,10.29
2018-01-23T11:36:31.654Z,10.25
2018-01-23T11:37:31.648Z,10.24
2018-01-23T11:38:31.643Z,10.18
2018-01-23T11:39:31.634Z,10.25
2018-01-23T11:40:31.628Z,10.36
2018-01-23T11:41:31.623Z,10.39
2018-01-23T11:42:31.617Z,10.20
2018-01-23T11:43:31.611Z,10.25
2018-01-23T11:44:31.607Z,10.22
2018-01-23T11:45:31.602Z,10.25
2018-01-23T11:46:31.595Z,10.24
2018-01-23T11:47:31.596Z,10.13
2018-01-23T11:48:31.590Z,10.06
2018-01-23T11:49:31.584Z,10.09
2018-01-23T11:50:31.577Z,10.11
2018-01-23T11:51:31.610Z,10.16
2018-01-23T11:52:31.562Z,10.10
2018-01-23T11:53:31.557Z,10.17
2018-01-23T11:54:31.552Z,10.10
2018-01-23T11:55:31.549Z,10.13
2018-01-23T11:56:31.544Z,10.10
2018-01-23T11:57:31.539Z,10.16
2018-01-23T11:58:31.533Z,9.93
2018-01-23T11:59:31.527Z,9.91
2018-01-23T12:00:31.522Z,9.89
2018-01-23T12:01:31.516Z,9.93
2018-01-23T12:02:31.511Z,9.96
2018-01-23T12:03:31.503Z,9.93
2018-01-23T12:04:31.494Z,9.88
2018-01-23T12:05:31.490Z,9.95
2018-01-23T12:06:31.481Z,9.85
2018-01-23T12:07:31.476Z,9.95
2018-01-23T12:08:31.470Z,9.91
2018-01-23T12:09:31.464Z,9.96
2018-01-23T12:10:31.466Z,9.98
2018-01-23T12:11:31.456Z,9.91
2018-01-23T12:12:31.450Z,9.95
2018-01-23T12:13:31.444Z,9.95
2018-01-23T12:14:31.439Z,9.98
2018-01-23T12:15:31.433Z,10.02
2018-01-23T12:16:31.427Z,10.06
2018-01-23T12:17:31.421Z,10.04
2018-01-23T12:18:31.415Z,10.10
2018-01-23T12:19:31.403Z,10.11
2018-01-23T12:20:31.398Z,10.24
2018-01-23T12:21:31.391Z,10.25
2018-01-23T12:22:31.385Z,10.18
2018-01-23T12:23:31.379Z,10.22
2018-01-23T12:24:31.375Z,10.17
2018-01-23T12:25:31.368Z,10.14
2018-01-23T12:26:31.364Z,10.18
2018-01-23T12:27:31.360Z,10.11
2018-01-23T12:28:31.354Z,10.22
2018-01-23T12:29:31.348Z,10.24
2018-01-23T12:30:31.341Z,10.18
2018-01-23T12:31:31.343Z,10.14
2018-01-23T12:32:31.330Z,10.26
2018-01-23T12:33:31.324Z,10.20
2018-01-23T12:34:31.317Z,10.25
2018-01-23T12:35:31.350Z,10.25
2018-01-23T12:36:31.302Z,10.28
2018-01-23T12:37:31.297Z,10.36
2018-01-23T12:38:31.289Z,10.36
2018-01-23T12:39:31.284Z,10.20
2018-01-23T12:40:31.278Z,10.20
2018-01-23T12:41:31.272Z,10.38
2018-01-23T12:42:31.265Z,10.46
2018-01-23T12:43:31.264Z,10.55
2018-01-23T12:44:31.259Z,10.51
2018-01-23T12:45:31.255Z,10.58
2018-01-23T12:46:31.247Z,10.57
2018-01-23T12:47:31.241Z,10.42
2018-01-23T12:48:31.237Z,10.47
2018-01-23T12:49:31.231Z,10.47
2018-01-23T12:50:31.225Z,10.44
2018-01-23T12:51:31.214Z,10.52
2018-01-23T12:52:31.211Z,10.66
2018-01-23T12:53:31.204Z,10.66
2018-01-23T12:54:31.197Z,10.66
2018-01-23T12:55:31.197Z,10.66
2018-01-23T12:56:31.191Z,10.69
2018-01-23T12:57:31.186Z,10.65
2018-01-23T12:58:31.179Z,10.65
2018-01-23T12:59:31.171Z,10.58
2018-01-23T13:00:31.165Z,10.60
2018-01-23T13:01:31.162Z,10.66
2018-01-23T13:02:31.153Z,10.80
2018-01-23T13:03:31.149Z,10.68
2018-01-23T13:04:31.143Z,10.63
2018-01-23T13:05:31.138Z,10.84
2018-01-23T13:06:31.131Z,10.86
2018-01-23T13:07:31.131Z,10.86
2018-01-23T13:08:31.125Z,10.83
2018-01-23T13:09:31.120Z,10.91
2018-01-23T13:10:31.114Z,10.86
2018-01-23T13:11:31.109Z,10.84
2018-01-23T13:12:31.105Z,10.88
2018-01-23T13:13:31.099Z,10.86
2018-01-23T13:14:31.093Z,10.72